createdAt,value
2022-11-07T00:07:58.487Z,1.40
2022-11-07T00:21:58.479Z,1.30
2022-11-07T00:35:58.499Z,1.40
2022-11-07T00:49:58.509Z,1.60
2022-11-07T01:03:58.494Z,1.40
2022-11-07T01:17:58.507Z,1.30
2022-11-07T01:31:58.501Z,1.50
2022-11-07T01:45:58.496Z,1.40
2022-11-07T01:59:58.544Z,1.20
2022-11-07T02:13:58.749Z,1.20
2022-11-07T02:27:58.840Z,1.20
2022-11-07T02:41:58.817Z,1.20
2022-11-07T02:55:58.837Z,1.10
2022-11-07T03:09:58.833Z,0.90
2022-11-07T03:23:58.834Z,1.10
2022-11-07T03:37:58.856Z,1.00
2022-11-07T03:51:58.845Z,0.90
2022-11-07T04:05:58.849Z,0.90
2022-11-07T04:19:58.849Z,0.85
2022-11-07T04:33:58.846Z,0.80
2022-11-07T04:47:58.865Z,0.75
2022-11-07T05:01:58.973Z,0.70
2022-11-07T05:15:58.874Z,0.70
2022-11-07T05:29:58.868Z,2.00
2022-11-07T05:43:58.857Z,2.30
2022-11-07T05:58:58.883Z,2.80
2022-11-07T06:13:58.885Z,2.90
2022-11-07T06:29:58.890Z,2.70
2022-11-07T06:44:58.887Z,2.40
2022-11-07T06:59:58.893Z,5.90
2022-11-07T07:14:58.898Z,5.60
2022-11-07T07:30:58.927Z,5.40
2022-11-07T07:45:58.913Z,4.70
2022-11-07T08:00:59.054Z,4.30
2022-11-07T08:15:59.013Z,4.10
2022-11-07T08:30:59.027Z,3.80
2022-11-07T08:45:59.028Z,3.60
2022-11-07T09:00:59.077Z,3.60
2022-11-07T09:15:59.063Z,3.10
2022-11-07T09:30:59.081Z,2.70
2022-11-07T09:46:59.219Z,2.40
2022-11-07T10:01:59.269Z,2.70
2022-11-07T10:16:59.232Z,2.40
2022-11-07T10:31:59.259Z,2.20
2022-11-07T10:46:59.295Z,2.30
2022-11-07T11:01:59.340Z,2.10
2022-11-07T11:16:59.301Z,2.10
2022-11-07T11:31:59.283Z,1.90
2022-11-07T11:46:59.346Z,1.85
2022-11-07T12:01:59.466Z,1.90
2022-11-07T12:16:59.679Z,1.70
2022-11-07T12:31:59.692Z,1.70
2022-11-07T12:47:59.825Z,1.70
2022-11-07T13:03:00.025Z,2.00
2022-11-07T13:18:00.141Z,2.00
2022-11-07T13:33:00.054Z,2.20
2022-11-07T13:48:00.079Z,2.10
2022-11-07T14:03:00.188Z,2.10
2022-11-07T14:18:00.218Z,2.20
2022-11-07T14:33:00.485Z,2.00
2022-11-07T14:48:00.839Z,1.90
2022-11-07T15:03:00.905Z,1.80
2022-11-07T15:18:00.889Z,2.00
2022-11-07T15:33:00.899Z,2.00
2022-11-07T15:48:00.898Z,2.15
2022-11-07T16:04:00.905Z,2.00
2022-11-07T16:19:00.962Z,2.00
2022-11-07T16:34:01.151Z,2.00
2022-11-07T16:48:01.138Z,1.90
2022-11-07T17:02:01.256Z,1.60
2022-11-07T17:16:01.194Z,1.50
2022-11-07T17:30:04.536Z,1.70
2022-11-07T17:44:01.421Z,1.60
2022-11-07T17:58:01.424Z,1.70
2022-11-07T18:12:01.404Z,1.60
2022-11-07T18:26:01.590Z,2.00
2022-11-07T18:40:01.591Z,1.90
2022-11-07T18:54:01.591Z,1.90
2022-11-07T19:08:01.646Z,1.60
2022-11-07T19:22:01.621Z,1.70
2022-11-07T19:36:01.992Z,1.60
2022-11-07T19:50:02.061Z,1.50
2022-11-07T20:04:02.029Z,3.20
2022-11-07T20:18:02.060Z,2.50
2022-11-07T20:32:02.053Z,2.10
2022-11-07T20:47:02.335Z,7.40
2022-11-07T21:01:02.300Z,7.90
2022-11-07T21:15:02.283Z,9.90
2022-11-07T21:29:39.052Z,10.60
2022-11-07T21:43:39.518Z,10.90
2022-11-07T21:57:39.247Z,11.10
2022-11-07T22:11:39.256Z,10.70
2022-11-07T22:25:39.294Z,10.90
2022-11-07T22:39:39.429Z,9.90
2022-11-07T22:53:39.541Z,9.50
2022-11-07T23:07:39.576Z,8.40
2022-11-07T23:21:39.622Z,8.70
2022-11-07T23:35:39.713Z,7.80
2022-11-07T23:49:40.429Z,7.60
